地図

経路データ

SID SEASON NUMBER BASIN SUBBASIN NAME ISO_TIME NATURE LAT LON WMO_WIND WMO_PRES WMO_AGENCY TRACK_TYPE DIST2LAND LANDFALL IFLAG USA_AGENCY USA_ATCF_ID USA_LAT USA_LON USA_RECORD USA_STATUS USA_WIND USA_PRES USA_SSHS USA_R34_NE USA_R34_SE USA_R34_SW USA_R34_NW USA_R50_NE USA_R50_SE USA_R50_SW USA_R50_NW USA_R64_NE USA_R64_SE USA_R64_SW USA_R64_NW USA_POCI USA_ROCI USA_RMW USA_EYE TOKYO_LAT TOKYO_LON TOKYO_GRADE TOKYO_WIND TOKYO_PRES TOKYO_R50_DIR TOKYO_R50_LONG TOKYO_R50_SHORT TOKYO_R30_DIR TOKYO_R30_LONG TOKYO_R30_SHORT TOKYO_LAND CMA_LAT CMA_LON CMA_CAT CMA_WIND CMA_PRES HKO_LAT HKO_LON HKO_CAT HKO_WIND HKO_PRES NEWDELHI_LAT NEWDELHI_LON NEWDELHI_GRADE NEWDELHI_WIND NEWDELHI_PRES NEWDELHI_CI NEWDELHI_DP NEWDELHI_POCI REUNION_LAT REUNION_LON REUNION_TYPE REUNION_WIND REUNION_PRES REUNION_TNUM REUNION_CI REUNION_RMW REUNION_R34_NE REUNION_R34_SE REUNION_R34_SW REUNION_R34_NW REUNION_R50_NE REUNION_R50_SE REUNION_R50_SW REUNION_R50_NW REUNION_R64_NE REUNION_R64_SE REUNION_R64_SW REUNION_R64_NW BOM_LAT BOM_LON BOM_TYPE BOM_WIND BOM_PRES BOM_TNUM BOM_CI BOM_RMW BOM_R34_NE BOM_R34_SE BOM_R34_SW BOM_R34_NW BOM_R50_NE BOM_R50_SE BOM_R50_SW BOM_R50_NW BOM_R64_NE BOM_R64_SE BOM_R64_SW BOM_R64_NW BOM_ROCI BOM_POCI BOM_EYE BOM_POS_METHOD BOM_PRES_METHOD NADI_LAT NADI_LON NADI_CAT NADI_WIND NADI_PRES WELLINGTON_LAT WELLINGTON_LON WELLINGTON_WIND WELLINGTON_PRES DS824_LAT DS824_LON DS824_STAGE DS824_WIND DS824_PRES TD9636_LAT TD9636_LON TD9636_STAGE TD9636_WIND TD9636_PRES TD9635_LAT TD9635_LON TD9635_WIND TD9635_PRES TD9635_ROCI NEUMANN_LAT NEUMANN_LON NEUMANN_CLASS NEUMANN_WIND NEUMANN_PRES MLC_LAT MLC_LON MLC_CLASS MLC_WIND MLC_PRES USA_GUST BOM_GUST BOM_GUST_PER REUNION_GUST REUNION_GUST_PER USA_SEAHGT USA_SEARAD_NE USA_SEARAD_SE USA_SEARAD_SW USA_SEARAD_NW STORM_SPEED STORM_DIR
1965056S15110 1965 29 SI WA DOLLY 1965-02-25 11:00:00 NR -14.5000 110.200 main 702 702 __________O___ -1 -14.5000 110.200 7 21 212
1965056S15110 1965 29 SI WA DOLLY 1965-02-25 12:00:00 TS -14.7935 110.014 1000 bom main 739 739 O_____O__OP___ jtwc_sh SH351965 -14.7000 110.000 -1 -15.0000 110.000 1000 -15.0000 110.000 TC 30 1000 -14.6806 110.042 7 15 221
1965056S15110 1965 29 SI WA DOLLY 1965-02-25 15:00:00 TS -15.2309 109.548 main 794 794 P_____P__PP___ SH351965 -15.2402 109.543 -1 -15.2441 109.545 995 -15.2368 109.526 TC 37 995 -15.2059 109.572 7 12 228
1965056S15110 1965 29 SI WA DOLLY 1965-02-25 18:00:00 TS -15.5967 109.105 main 846 846 O_____P__PP_O_ jtwc_sh SH351965 -15.7000 109.100 -1 -15.4833 109.087 990 -15.4685 109.061 TC 45 990 -15.6722 109.112 7 -15.4000 109.300 TC 45 992 11 233
1965056S15110 1965 29 SI WA DOLLY 1965-02-25 21:00:00 TS -15.8682 108.675 main 872 872 P_____P__PP_P_ SH351965 -16.0174 108.685 -1 -15.7136 108.625 986 -15.6909 108.616 TC 52 985 -16.0359 108.674 7 -15.6001 108.860 TC 50 987 9 239
1965056S15110 1965 29 SI WA DOLLY 1965-02-25 23:00:00 TS -15.9996 108.403 main 884 884 P_____P__PO_P_ SH351965 -16.1526 108.425 -1 -15.8603 108.314 983 -15.8320 108.335 TC 57 981 -16.2000 108.400 7 -15.7333 108.557 TC 53 984 9 245
1965056S15110 1965 29 SI WA DOLLY 1965-02-26 00:00:00 TS -16.0476 108.271 main 891 890 O_____P__OP_O_ jtwc_sh SH351965 -16.2000 108.300 -1 -15.9311 108.157 981 -15.9000 108.200 TC 60 980 -16.2544 108.269 7 -15.8000 108.400 TC 55 983 8 249
1965056S15110 1965 29 SI WA DOLLY 1965-02-26 01:00:00 TS -16.1015 108.134 980 bom main 897 896 P_____O__PP_P_ SH351965 -16.2421 108.175 -1 -16.0000 108.000 980 -15.9661 108.070 TC 60 979 -16.2920 108.143 7 -15.8667 108.240 TC 56 981 8 250
1965056S15110 1965 29 SI WA DOLLY 1965-02-26 03:00:00 TS -16.1877 107.867 main 903 903 P_____P__PP_P_ SH351965 -16.2874 107.935 -1 -16.1315 107.688 978 -16.0930 107.821 TC 62 978 -16.3268 107.904 7 -16.0001 107.920 TC 60 979 8 253
1965056S15110 1965 29 SI WA DOLLY 1965-02-26 05:50:00 TS -16.2781 107.523 976 bom main 926 926 P_____O__PP_P_ SH351965 -16.3000 107.618 -1 -16.3000 107.300 976 -16.2623 107.489 TC 64 976 -16.3177 107.592 7 -16.1889 107.520 TC 64 976 7 255
1965056S15110 1965 29 SI WA DOLLY 1965-02-26 06:00:00 TS -16.2829 107.504 main 926 926 O_____P__PP_O_ jtwc_sh SH351965 -16.3000 107.600 -1 -16.3093 107.281 975 -16.2719 107.470 TC 65 976 -16.3160 107.575 7 -16.2000 107.500 TC 65 976 6 255
1965056S15110 1965 29 SI WA DOLLY 1965-02-26 09:00:00 TS -16.3629 107.203 main 942 942 P_____P__PP_P_ SH351965 -16.2850 107.277 -1 -16.4621 107.017 973 -16.4399 107.133 TC 67 974 -16.2909 107.280 7 -16.4148 107.235 TC 67 974 6 253
1965056S15110 1965 29 SI WA DOLLY 1965-02-26 11:00:00 TS -16.4196 107.024 main 958 958 P_____P__PO_P_ SH351965 -16.2855 107.086 -1 -16.5546 106.875 972 -16.5473 106.912 TC 69 972 -16.3000 107.100 2 -16.5446 107.084 TC 69 972 5 250
1965056S15110 1965 29 SI WA DOLLY 1965-02-26 12:00:00 TS -16.4541 106.936 972 bom main 959 959 O_____O__OP_O_ jtwc_sh SH351965 -16.3000 107.000 -1 -16.6000 106.800 972 4 -16.6000 106.800 TC 70 972 -16.3245 107.019 2 -16.6000 107.000 TC 70 972 5 247
1965056S15110 1965 29 SI WA DOLLY 1965-02-26 15:00:00 TS -16.5517 106.699 main 968 968 P_____P__PP_P_ SH351965 -16.4124 106.792 -1 -16.6630 106.597 974 -16.6891 106.548 TC 66 975 -16.4256 106.800 2 -16.7075 106.665 TC 67 974 5 244
1965056S15110 1965 29 SI WA DOLLY 1965-02-26 18:00:00 TS -16.6799 106.457 main 978 978 O_____P__PP_O_ jtwc_sh SH351965 -16.6000 106.600 -1 -16.7168 106.365 977 -16.7822 106.281 TC 62 978 -16.5804 106.595 2 -16.8000 106.300 TC 65 976 6 239
1965056S15110 1965 29 SI WA DOLLY 1965-02-26 21:00:00 TS -16.8475 106.182 main 997 990 P_____P__PP_P_ SH351965 -16.8049 106.380 -1 -16.8316 106.032 980 -16.9343 105.924 TC 58 981 -16.8044 106.373 2 -16.9046 106.002 TC 62 979 7 236
1965056S15110 1965 29 SI WA DOLLY 1965-02-26 23:00:00 TS -17.0113 105.946 main 1010 1004 P_____P__PO_P_ SH351965 -16.9885 106.203 -1 -16.9765 105.716 982 -17.0955 105.598 TC 56 983 -17.0000 106.200 1 -17.0186 105.756 TC 60 981 9 234
1965056S15110 1965 29 SI WA DOLLY 1965-02-27 00:00:00 TS -17.1139 105.799 main 1013 1013 O_____P__OP_O_ jtwc_sh SH351965 -17.1000 106.100 -1 -17.0772 105.522 983 -17.2000 105.400 TC 55 984 -17.1060 106.074 1 -17.1000 105.600 TC 60 982 12 236
1965056S15110 1965 29 SI WA DOLLY 1965-02-27 01:00:00 TS -17.2274 105.615 984 bom main 1024 1024 P_____O__PP_P_ SH351965 -17.2246 105.981 -1 -17.2000 105.300 984 -17.3066 105.111 TC 55 984 -17.2220 105.938 1 -17.1869 105.375 TC 59 982 14 237
1965056S15110 1965 29 SI WA DOLLY 1965-02-27 03:00:00 TS -17.4954 105.173 main 1044 1044 P_____P__PP_P_ SH351965 -17.5126 105.715 -1 -17.4899 104.592 984 -17.5650 104.499 TC 55 984 -17.4815 105.652 1 -17.4109 104.863 TC 57 983 15 232
1965056S15110 1965 29 SI WA DOLLY 1965-02-27 06:00:00 TS -17.9996 104.581 main 1069 1067 O_____P__OP_O_ jtwc_sh SH351965 -18.0000 105.300 -1 -18.0670 103.661 984 -18.1000 103.800 TC 55 984 -17.9305 105.224 1 -17.9000 104.200 TC 55 984 15 224
1965056S15110 1965 29 SI WA DOLLY 1965-02-27 07:00:00 TS -18.1966 104.451 984 bom main 1067 1065 P_____O__PP_P_ SH351965 -18.1531 105.157 -1 -18.3000 103.500 984 -18.3461 103.721 TC 55 984 -18.0938 105.093 1 -18.1333 104.080 TC 55 984 14 202
1965056S15110 1965 29 SI WA DOLLY 1965-02-27 09:00:00 TS -18.6343 104.312 main 1065 1046 P_____P__PP_P_ SH351965 -18.4701 104.883 -1 -18.8603 103.544 984 -18.9035 103.740 TC 55 984 -18.4374 104.864 1 -18.6645 103.957 TC 55 984 14 190
1965056S15110 1965 29 SI WA DOLLY 1965-02-27 11:00:00 TS -19.0848 104.288 main 1042 1033 P_____P__PO_P_ SH351965 -18.8136 104.669 -1 -19.4410 103.832 984 -19.4578 103.900 TC 55 984 -18.8000 104.700 7 -19.1828 103.962 TC 55 984 13 182
1965056S15110 1965 29 SI WA DOLLY 1965-02-27 12:00:00 TS -19.3019 104.309 984 bom main 1033 1003 O_____O__OP_O_ jtwc_sh SH351965 -19.0000 104.600 -1 -19.7000 104.000 984 -19.7000 104.000 TC 55 984 -19.0116 104.654 7 -19.4000 104.000 TC 55 984 12 172
1965056S15110 1965 29 SI WA DOLLY 1965-02-27 15:00:00 TS -19.8466 104.402 main 1003 965 P_____P__PP_P_ SH351965 -19.6499 104.567 -1 -20.1808 104.276 984 -20.1235 104.187 TC 55 984 -19.6930 104.612 7 -19.7826 104.205 TC 55 984 10 165
1965056S15110 1965 29 SI WA DOLLY 1965-02-27 18:00:00 TS -20.2809 104.589 main 965 936 O_____P__PP_O_ jtwc_sh SH351965 -20.3000 104.700 -1 -20.4059 104.525 984 -20.3126 104.420 TC 55 984 -20.3667 104.690 7 -20.0000 104.500 TC 55 984 9 155
1965056S15110 1965 29 SI WA DOLLY 1965-02-27 21:00:00 TS -20.6376 104.786 main 936 920 P_____P__PP_P_ SH351965 -20.9125 104.870 -1 -20.4757 104.747 984 -20.3704 104.668 TC 55 984 -20.9324 104.856 7 -20.2224 104.708 TC 55 984 7 149
1965056S15110 1965 29 SI WA DOLLY 1965-02-27 23:00:00 TS -20.8060 104.930 main 920 907 P_____P__PO_P_ SH351965 -21.2097 105.020 -1 -20.4853 104.880 984 -20.3869 104.827 TC 55 984 -21.2000 105.000 7 -20.3443 104.836 TC 55 984 6 138
1965056S15110 1965 29 SI WA DOLLY 1965-02-28 00:00:00 TS -20.8583 105.002 main 907 897 O_____P__OP_O_ jtwc_sh SH351965 -21.3000 105.100 -1 -20.4901 104.942 984 -20.4000 104.900 TC 55 984 -21.2595 105.068 7 -20.4000 104.900 TC 55 984 5 123
1965056S15110 1965 29 SI WA DOLLY 1965-02-28 01:00:00 TS -20.8930 105.070 984 bom main 897 887 P_____O__PP_P_ SH351965 -21.3299 105.175 -1 -20.5000 105.000 984 -20.4505 104.957 TC 54 984 -21.2917 105.144 7 -20.4557 104.969 TC 55 984 4 108
1965056S15110 1965 29 SI WA DOLLY 1965-02-28 03:00:00 TS -20.9228 105.209 main 887 867 P_____P__PP_P_ SH351965 -21.2750 105.335 -1 -20.5910 105.099 985 -20.5480 105.061 TC 52 986 -21.2901 105.316 7 -20.5575 105.108 TC 55 985 4 94
1965056S15110 1965 29 SI WA DOLLY 1965-02-28 06:00:00 TS -20.9152 105.422 main 867 847 O_____P__PP_O_ jtwc_sh SH351965 -21.1000 105.600 -1 -20.7169 105.225 987 -20.6906 105.203 TC 50 988 -21.1840 105.606 7 -20.7000 105.300 TC 55 986 4 94
1965056S15110 1965 29 SI WA DOLLY 1965-02-28 09:00:00 TS -20.9504 105.642 main 844 824 P_____P__PP_P_ SH351965 -21.0625 105.900 -1 -20.8469 105.349 989 -20.8379 105.344 TC 47 990 -21.0503 105.908 7 -20.8424 105.450 TC 50 988 4 104
1965056S15110 1965 29 SI WA DOLLY 1965-02-28 11:00:00 TS -20.9981 105.791 main 824 814 P_____P__PO_P_ SH351965 -21.0776 106.103 -1 -20.9453 105.445 991 -20.9437 105.445 TC 45 991 -21.0000 106.100 1 -20.9443 105.547 TC 46 990 5 113
1965056S15110 1965 29 SI WA DOLLY 1965-02-28 12:00:00 TS -21.0376 105.865 992 bom main 814 789 O_____O__OP_O_ jtwc_sh SH351965 -21.1000 106.200 -1 -21.0000 105.500 992 -21.0000 105.500 TC 45 992 -21.0257 106.189 1 -21.0000 105.600 TC 45 991 5 124
1965056S15110 1965 29 SI WA DOLLY 1965-02-28 15:00:00 TS -21.1978 106.106 main 789 764 P_____P__PP_P_ SH351965 -21.2200 106.472 -1 -21.1979 105.713 992 -21.2054 105.745 TC -21.1514 106.448 1 -21.1925 105.785 TC 45 991 6 129
1965056S15110 1965 29 SI WA DOLLY 1965-02-28 18:00:00 TS -21.3983 106.345 main 764 729 O_____P__PP_O_ jtwc_sh SH351965 -21.4000 106.700 -1 -21.4228 105.959 992 -21.4343 106.027 TC -21.3329 106.685 1 -21.4000 106.000 TC 45 992 6 134
1965056S15110 1965 29 SI WA DOLLY 1965-02-28 21:00:00 TS -21.6118 106.571 main 729 717 P_____P__PP_P_ SH351965 -21.5925 106.873 -1 -21.6654 106.228 992 -21.6794 106.331 TC -21.5483 106.889 1 -21.5925 106.235 TC 45 992 6 137
1965056S15110 1965 29 SI WA DOLLY 1965-02-28 23:00:00 TS -21.7616 106.714 main 715 705 P_____P__PO_P_ SH351965 -21.7307 106.961 -1 -21.8323 106.413 992 -21.8483 106.537 TC -21.7000 107.000 7 -21.7276 106.408 TC 45 992 6 139
1965056S15110 1965 29 SI WA DOLLY 1965-03-01 00:00:00 TS -21.8361 106.782 main 705 703 O_____P__PP_O_ jtwc_sh SH351965 -21.8000 107.000 -1 -21.9162 106.507 992 -21.9335 106.640 TC -21.7670 107.045 7 -21.8000 106.500 TC 45 992 6 140
1965056S15110 1965 29 SI WA DOLLY 1965-03-01 01:00:00 TS -21.9101 106.851 992 bom main 693 682 P_____O__PP_P_ SH351965 -21.8640 107.042 -1 -22.0000 106.600 992 -22.0190 106.741 TC -21.8358 107.084 7 -21.8776 106.597 TC 45 992 6 140
1965056S15110 1965 29 SI WA DOLLY 1965-03-01 03:00:00 TS -22.0604 106.986 main 680 658 P_____P__PP_P_ SH351965 -21.9925 107.115 -1 -22.1669 106.803 992 -22.1896 106.938 TC -21.9785 107.148 7 -22.0425 106.800 TC 45 992 6 142
1965056S15110 1965 29 SI WA DOLLY 1965-03-01 06:00:00 TS -22.2941 107.172 main 658 646 O_____P__PP_O_ jtwc_sh SH351965 -22.2000 107.200 -1 -22.4202 107.109 992 -22.4405 107.208 TC -22.2036 107.215 7 -22.3000 107.100 TC 45 992 6 146
1965056S15110 1965 29 SI WA DOLLY 1965-03-01 09:00:00 TS -22.5382 107.329 main 646 636 P_____P__PP_P_ SH351965 -22.4425 107.250 -1 -22.6679 107.387 992 -22.6796 107.435 TC -22.4390 107.266 7 -22.5575 107.387 TC 45 992 6 151
1965056S15110 1965 29 SI WA DOLLY 1965-03-01 11:00:00 TS -22.7007 107.416 main 636 624 P_____P__PO_P_ SH351965 -22.6140 107.280 -1 -22.8250 107.538 992 -22.8290 107.553 TC -22.6000 107.300 2 -22.7224 107.542 TC 45 992 5 154
1965056S15110 1965 29 SI WA DOLLY 1965-03-01 12:00:00 TS -22.7814 107.457 992 bom main 624 609 O_____O__OP_O_ jtwc_sh SH351965 -22.7000 107.300 -1 -22.9000 107.600 992 -22.9000 107.600 TC 45 992 -22.6886 107.341 2 -22.8000 107.600 TC 45 992 5 156
1965056S15110 1965 29 SI WA DOLLY 1965-03-01 15:00:00 TS -23.0077 107.566 main 609 604 P_____P__PP_P_ SH351965 -22.9500 107.400 -1 -23.0982 107.740 992 -23.0769 107.707 TC 45 992 -22.9634 107.470 2 -23.0074 107.680 TC 45 992 5 160
1965056S15110 1965 29 SI WA DOLLY 1965-03-01 18:00:00 TS -23.2262 107.641 main 604 589 O_____P__PP_O_ jtwc_sh SH351965 -23.2000 107.500 -1 -23.2795 107.807 992 -23.2454 107.762 TC 45 992 -23.2323 107.578 2 -23.2000 107.700 TC 45 992 5 165
1965056S15110 1965 29 SI WA DOLLY 1965-03-01 21:00:00 TS -23.4503 107.695 main 587 585 P_____P__PP_P_ SH351965 -23.4799 107.602 -1 -23.4552 107.804 992 -23.4162 107.760 TC 45 992 -23.4705 107.624 2 -23.4000 107.780 TC 45 992 4 175
1965056S15110 1965 29 SI WA DOLLY 1965-03-01 23:00:00 TS -23.5873 107.690 main 585 585 P_____P__PO_P_ SH351965 -23.6395 107.620 -1 -23.5748 107.766 992 -23.5366 107.727 TC 45 992 -23.6000 107.600 2 -23.5333 107.806 TC 45 992 4 187
1965056S15110 1965 29 SI WA DOLLY 1965-03-02 00:00:00 TS -23.6465 107.665 main 585 583 O_____P__OP_O_ jtwc_sh SH351965 -23.7000 107.600 -1 -23.6365 107.736 992 -23.6000 107.700 TC 45 992 -23.6424 107.555 2 -23.6000 107.800 TC 45 992 4 207
1965056S15110 1965 29 SI WA DOLLY 1965-03-02 01:00:00 TS -23.6983 107.624 992 bom main 593 592 P_____O__PP_P_ SH351965 -23.7369 107.554 -1 -23.7000 107.700 992 -23.6720 107.669 TC 45 992 -23.6771 107.497 2 -23.6667 107.773 TC 45 992 4 226
1965056S15110 1965 29 SI WA DOLLY 1965-03-02 03:00:00 TS -23.7906 107.505 main 602 602 P_____P__PP_P_ SH351965 -23.7725 107.402 -1 -23.8467 107.616 992 -23.8229 107.583 TC 45 992 -23.7286 107.348 2 -23.8000 107.680 TC 45 992 5 236
1965056S15110 1965 29 SI WA DOLLY 1965-03-02 06:00:00 TS -23.9190 107.270 main 621 621 O_____P__PP_O_ jtwc_sh SH351965 -23.8000 107.100 -1 -24.0742 107.438 992 -24.0577 107.411 TC 45 992 -23.7821 107.071 2 -24.0000 107.500 TC 45 992 5 238
1965056S15110 1965 29 SI WA DOLLY 1965-03-02 09:00:00 TS -24.0647 107.020 main 649 649 P_____P__PP_P_ SH351965 -23.8776 106.778 -1 -24.2969 107.223 992 -24.2886 107.208 TC 45 992 -23.8401 106.778 2 -24.2075 107.357 TC 45 992 5 236
1965056S15110 1965 29 SI WA DOLLY 1965-03-02 11:00:00 TS -24.1687 106.859 main 658 658 P_____P__PO_P_ SH351965 -23.9527 106.580 -1 -24.4354 107.073 992 -24.4326 107.068 TC 45 992 -23.9000 106.600 2 -24.3390 107.256 TC 45 992 5 232
1965056S15110 1965 29 SI WA DOLLY 1965-03-02 12:00:00 TS -24.2247 106.791 992 bom main 668 668 O_____O__OP_O_ jtwc_sh SH351965 -24.0000 106.500 -1 -24.5000 107.000 992 -24.5000 107.000 TC 45 992 -23.9485 106.545 2 -24.4000 107.200 TC 45 992 5 222
1965056S15110 1965 29 SI WA DOLLY 1965-03-02 15:00:00 TS -24.4002 106.631 main 688 687 P_____P__PP_P_ SH351965 -24.1849 106.385 -1 -24.6724 106.794 992 -24.6806 106.807 TC 42 993 -24.1211 106.406 2 -24.5575 107.007 TC 42 992 5 218
1965056S15110 1965 29 SI WA DOLLY 1965-03-02 18:00:00 TS -24.5797 106.485 main 698 698 O_____P__PP_O_ jtwc_sh SH351965 -24.4000 106.300 -1 -24.8183 106.604 993 -24.8350 106.630 TC 40 994 -24.3249 106.279 2 -24.7000 106.800 TC 40 993 5 222
1965056S15110 1965 29 SI WA DOLLY 1965-03-02 21:00:00 TS -24.7377 106.293 main 718 717 P_____P__PP_P_ SH351965 -24.6000 106.130 -1 -24.9456 106.427 994 -24.9719 106.462 TC 37 995 -24.5474 106.129 2 -24.8475 106.598 TC 40 994 5 232
1965056S15110 1965 29 SI WA DOLLY 1965-03-02 23:00:00 TS -24.8290 106.129 main 736 734 P_____P__PO_P_ SH351965 -24.7333 105.983 -1 -25.0240 106.313 995 -25.0577 106.354 TC 35 995 -24.7000 106.000 1 -24.9490 106.466 TC 40 994 6 245
1965056S15110 1965 29 SI WA DOLLY 1965-03-03 00:00:00 TS -24.8597 106.006 main 744 744 O_____P__OP_O_ jtwc_sh SH351965 -24.8000 105.900 -1 -25.0622 106.256 995 -25.1000 106.300 TC 35 996 -24.7827 105.920 1 -25.0000 106.400 TC 40 995 8 258
1965056S15110 1965 29 SI WA DOLLY 1965-03-03 01:00:00 TS -24.8834 105.850 996 bom main 763 763 P_____O___P___ SH351965 -24.8640 105.814 -1 -25.1000 106.200 996 TC -24.8679 105.834 1 TC 7 246
1965056S15110 1965 29 SI WA DOLLY 1965-03-03 03:00:00 TS -25.0086 105.630 main 781 779 P_________P___ SH351965 -24.9925 105.622 -1 TC -25.0409 105.645 1 TC 7 235
1965056S15110 1965 29 SI WA DOLLY 1965-03-03 06:00:00 TS -25.2300 105.307 main 807 805 O_________P___ jtwc_sh SH351965 -25.2000 105.300 -1 TC -25.2899 105.321 1 8 232
1965056S15110 1965 29 SI WA DOLLY 1965-03-03 09:00:00 TS -25.4861 104.963 main 832 832 P_________P___ SH351965 -25.4799 104.965 -1 TC -25.4986 104.959 1 8 233
1965056S15110 1965 29 SI WA DOLLY 1965-03-03 11:00:00 TS -25.6284 104.717 main 861 860 P_________O___ SH351965 -25.6425 104.725 -1 TC -25.6000 104.700 1 8 241
1965056S15110 1965 29 SI WA DOLLY 1965-03-03 12:00:00 TS -25.6745 104.587 main 870 870 O_________P___ jtwc_sh SH351965 -25.7000 104.600 -1 -25.6363 104.567 1 7 259
1965056S15110 1965 29 SI WA DOLLY 1965-03-03 15:00:00 TS -25.7224 104.181 main 910 910 P_________P___ SH351965 -25.7527 104.207 -1 -25.6921 104.154 1 7 269
1965056S15110 1965 29 SI WA DOLLY 1965-03-03 18:00:00 TS -25.6916 103.757 main 950 950 O_________P___ jtwc_sh SH351965 -25.7000 103.800 -1 -25.6860 103.728 1 8 276
1965056S15110 1965 29 SI WA DOLLY 1965-03-03 21:00:00 NR -25.6408 103.292 main 1001 1001 __________P___ SH351965 -1 -25.6408 103.292 1 8 278
1965056S15110 1965 29 SI WA DOLLY 1965-03-03 23:00:00 NR -25.6000 103.000 main 1031 __________O___ SH351965 -1 -25.6000 103.000 1 8 279

IBTrACS Databaseについて

本データベースは、米国NOAAが公開する1842年以降の世界の熱帯低気圧のベストトラックデータアーカイブInternational Best Track Archive for Climate Stewardship (IBTrACS)を、ウェブで閲覧しやすい形式に変換したものです。

最終更新日:2021-12-08